Nearby METAR Reports

 

KRDU - Raleigh-Durham, NC, USA
Distance from station: NE 9mi, 14km
Updated: Tue, 03-Aug-2021 6:51pm EDT
Overcast
Overcast
 Wind from E
Wind: E 6 mph , 9 km/h
Temperature: 70°F , 21°C
Dew Point: 64°F , 18°C
Humidity: 83%
Barometer: 1017.3 hPa
Clouds: Overcast
Visibility: 10 miles , 16 km
Cloud details: Few Clouds 2200 ft
Overcast 11000 ft
2021/08/03 22:51 KRDU 032251Z 08005KT 10SM FEW022 OVC110 21/18 A3004 RMK AO2 RAE22 SLP168 P0000 T02060183
KLHZ - Louisburg, NC, USA
Distance from station: N 9mi, 14km
Updated: Tue, 03-Aug-2021 7:35pm EDT
Light rain, Overcast
Light rain, Overcast
 Wind from E
Wind: E 7 mph , 11 km/h
Temperature: 68°F , 20°C
Dew Point: 66°F , 19°C
Humidity: 94%
Barometer: 1017.9 hPa
Summary: Light rain
Clouds: Overcast
Visibility: 7 miles , 11 km
Cloud details: Mostly cloudy 800 ft
Mostly cloudy 1400 ft
Overcast 2300 ft
2021/08/03 23:35 KLHZ 032335Z AUTO 09006KT 7SM -RA BKN008 BKN014 OVC023 20/19 A3006 RMK AO2
 
KJNX - Smithfield, NC, USA
Distance from station: NNW 14mi, 23km
Updated: Tue, 03-Aug-2021 7:35pm EDT
Light drizzle, Overcast
Light drizzle, Overcast
 Wind from NE
Wind: NE 7 mph , 11 km/h
Temperature: 68°F , 20°C
Dew Point: 66°F , 19°C
Humidity: 94%
Barometer: 1015.9 hPa
Summary: Light Drizzle
Clouds: Overcast
Visibility: 10 miles , 16 km
Cloud details: Partly cloudy 4200 ft
Mostly cloudy 4900 ft
Overcast 11000 ft
2021/08/03 23:35 KJNX 032335Z AUTO 04006KT 10SM -DZ SCT042 BKN049 OVC110 20/19 A3000 RMK AO2 LTG DSNT S P0001
KHRJ - Erwin, NC, USA
Distance from station: ENE 12mi, 19km
Updated: Tue, 03-Aug-2021 7:35pm EDT
Clear
Clear
 Wind from NE
Wind: NE 6 mph , 9 km/h
Temperature: 68°F , 20°C
Dew Point: 68°F , 20°C
Humidity: 100%
Barometer: 1016.3 hPa
Clouds: Clear
Visibility: 10 miles , 16 km
2021/08/03 23:35 KHRJ 032335Z AUTO 04005KT 10SM CLR 20/20 A3001 RMK AO2 T02020202
 
KTTA - Sanford, NC, USA
Distance from station: NNW 31mi, 50km
Updated: Tue, 03-Aug-2021 6:55pm EDT
Light rain, Overcast
Light rain, Overcast
 Wind from NE
Wind: NE 6 mph , 9 km/h
Temperature: 66°F , 19°C
Dew Point: 66°F , 19°C
Humidity: 100%
Barometer: 1016.6 hPa
Summary: Light rain
Clouds: Overcast
Visibility: 10 miles , 16 km
Cloud details: Partly cloudy 6000 ft
Mostly cloudy 7000 ft
Overcast 9000 ft
2021/08/03 22:55 KTTA 032255Z AUTO 05005KT 10SM -RA SCT060 BKN070 OVC090 19/19 A3002 RMK AO2 P0002 T01910191
KSCR - Siler City, NC, USA
Distance from station: NW 21mi, 34km
Updated: Tue, 03-Aug-2021 7:35pm EDT
Clear
Clear
 Wind from ENE
Wind: ENE 6 mph , 9 km/h
Temperature: 52°F , 11°C
Dew Point: 41°F , 5°C
Humidity: 67%
Barometer: 1017.3 hPa
Clouds: Clear
Visibility: 10 miles , 16 km
2021/08/03 23:35 KSCR 032335Z AUTO 06005KT 10SM CLR 11/05 A3004 RMK AO2 T01060053